Time;durP1;ratioP1;P1;durP2;ratioP2;P2;SDS_P1;SDS_P2;PMS_P1;PMS_P2;Temp;Humidity;BMP_temperature;BMP_pressure;BME280_temperature;BME280_humidity;BME280_pressure;Samples;Min_cycle;Max_cycle;Signal;HPM_P1;HPM_P2
2022/09/09 04:10:52;;;;;;;0.60;0.57;;;;;;;20.55;66.44;101201.28;5063725;28;20383;-81
2022/09/09 04:13:17;;;;;;;1.15;0.77;;;;;;;20.50;66.90;101195.53;5067417;28;20040;-80
2022/09/09 04:15:44;;;;;;;0.63;0.63;;;;;;;20.50;67.19;101207.84;5049036;28;20033;-80
2022/09/09 04:18:11;;;;;;;0.60;0.60;;;;;;;20.80;65.91;101210.59;5066400;28;20114;-80
2022/09/09 04:20:37;;;;;;;0.90;0.90;;;;;;;21.05;64.70;101204.13;5033091;28;20060;-80
2022/09/09 04:23:03;;;;;;;0.40;0.40;;;;;;;21.69;62.11;101213.63;5064268;28;20052;-84
2022/09/09 04:25:28;;;;;;;1.05;0.95;;;;;;;21.92;61.06;101214.25;5066088;28;20102;-82
2022/09/09 04:27:55;;;;;;;0.95;0.93;;;;;;;21.80;61.24;101210.06;5049244;28;20538;-82
2022/09/09 04:30:20;;;;;;;0.60;0.60;;;;;;;21.50;62.00;101203.03;5062744;28;20501;-91
2022/09/09 04:32:46;;;;;;;0.60;0.60;;;;;;;21.30;62.96;101218.72;5031942;28;20063;-91
2022/09/09 04:35:12;;;;;;;0.70;0.70;;;;;;;21.40;62.82;101214.34;5050128;28;20032;-92
2022/09/09 04:37:37;;;;;;;0.60;0.60;;;;;;;21.38;62.42;101205.75;5048824;28;20098;-85
2022/09/09 04:40:03;;;;;;;0.63;0.63;;;;;;;21.35;62.51;101187.59;5048983;28;20036;-82
2022/09/09 04:42:28;;;;;;;0.40;0.40;;;;;;;21.44;62.18;101192.06;5048957;28;20033;-82
2022/09/09 04:44:54;;;;;;;0.63;0.63;;;;;;;21.20;62.85;101173.06;5065167;28;20060;-81
2022/09/09 04:47:19;;;;;;;0.50;0.50;;;;;;;21.84;61.22;101191.25;5049133;28;20033;-81
2022/09/09 04:49:45;;;;;;;0.55;0.50;;;;;;;22.17;60.27;101197.16;5048781;28;20460;-84
2022/09/09 04:52:10;;;;;;;1.15;1.05;;;;;;;21.96;60.24;101198.06;5050725;28;20028;-86
2022/09/09 04:54:36;;;;;;;1.48;1.35;;;;;;;22.16;60.62;101206.06;5064645;28;20090;-83
2022/09/09 04:57:01;;;;;;;3.10;1.63;;;;;;;22.48;59.49;101197.91;5062123;28;20052;-82
2022/09/09 04:59:27;;;;;;;0.40;0.40;;;;;;;22.80;58.52;101200.25;5047847;28;20029;-86
2022/09/09 05:01:54;;;;;;;1.20;1.10;;;;;;;22.90;58.14;101215.13;5065635;28;20174;-83
2022/09/09 05:04:20;;;;;;;1.00;0.80;;;;;;;22.85;57.54;101193.63;5060956;28;20035;-86
2022/09/09 05:06:46;;;;;;;1.00;0.95;;;;;;;22.89;57.45;101213.44;5083466;28;20024;-90
2022/09/09 05:09:11;;;;;;;1.85;1.42;;;;;;;22.79;58.15;101224.97;5051884;28;20048;-87
2022/09/09 05:11:38;;;;;;;1.48;0.73;;;;;;;22.85;58.78;101214.72;5036750;28;20020;-91
2022/09/09 05:14:03;;;;;;;1.33;0.98;;;;;;;23.06;57.66;101225.09;5072342;28;20032;-85
2022/09/09 05:16:29;;;;;;;1.27;1.17;;;;;;;22.78;57.84;101239.13;5066510;28;20029;-92
2022/09/09 05:18:55;;;;;;;1.30;1.10;;;;;;;22.41;58.92;101226.59;5048978;28;20025;-87
2022/09/09 05:21:22;;;;;;;0.50;0.50;;;;;;;22.78;59.08;101233.84;5051524;28;20111;-93
2022/09/09 05:23:48;;;;;;;1.17;0.85;;;;;;;22.89;58.26;101194.16;5044507;28;20021;-91
2022/09/09 05:26:15;;;;;;;1.55;1.00;;;;;;;23.25;57.69;101231.31;5057465;28;20095;-90
2022/09/09 05:28:40;;;;;;;1.25;1.15;;;;;;;23.32;57.63;101232.44;5038073;28;20056;-91
2022/09/09 05:31:07;;;;;;;1.08;0.93;;;;;;;23.36;57.37;101229.34;5036671;28;20035;-84
2022/09/09 05:33:34;;;;;;;0.85;0.80;;;;;;;23.51;57.03;101228.91;5050546;28;20035;-89
2022/09/09 05:36:01;;;;;;;0.82;0.70;;;;;;;23.36;57.08;101216.16;5045211;28;20063;-93
2022/09/09 05:38:27;;;;;;;0.90;0.90;;;;;;;23.40;56.97;101219.31;5061988;28;20048;-93
2022/09/09 05:40:53;;;;;;;1.65;1.00;;;;;;;23.27;56.84;101202.97;5051416;28;20505;-83
2022/09/09 05:43:22;;;;;;;1.33;1.23;;;;;;;23.50;56.69;101204.31;5070868;28;20063;-91
2022/09/09 05:45:48;;;;;;;1.25;1.00;;;;;;;23.59;56.74;101203.44;5052553;28;20029;-84
2022/09/09 05:48:16;;;;;;;0.65;0.65;;;;;;;23.26;57.21;101196.03;5036917;28;20546;-87
2022/09/09 05:50:42;;;;;;;1.35;1.17;;;;;;;23.18;57.95;101205.50;5064046;28;20174;-86
2022/09/09 05:53:09;;;;;;;0.68;0.68;;;;;;;23.27;57.94;101202.97;5067361;28;20027;-89
2022/09/09 05:55:34;;;;;;;1.20;1.10;;;;;;;23.36;57.52;101202.13;5052059;28;20029;-93
2022/09/09 05:58:01;;;;;;;0.57;0.57;;;;;;;23.17;58.20;101203.00;5020439;28;20505;-79
2022/09/09 06:00:26;;;;;;;1.55;1.33;;;;;;;23.19;58.08;101204.50;5048177;28;20490;-82
2022/09/09 06:02:52;;;;;;;0.85;0.70;;;;;;;23.15;58.04;101205.78;5062110;28;20060;-92
2022/09/09 06:05:18;;;;;;;1.30;1.20;;;;;;;22.85;58.72;101190.16;5015406;28;20034;-91
2022/09/09 06:07:44;;;;;;;1.15;0.80;;;;;;;22.99;59.10;101225.81;5099937;28;20028;-88
2022/09/09 06:10:13;;;;;;;0.75;0.75;;;;;;;22.81;59.52;101225.63;5041204;28;20049;-91
2022/09/09 06:12:39;;;;;;;0.65;0.65;;;;;;;22.84;59.69;101225.41;5042606;28;20025;-86
2022/09/09 06:15:05;;;;;;;1.35;0.88;;;;;;;22.95;60.13;101227.91;5019164;28;20186;-90
2022/09/09 06:17:31;;;;;;;0.65;0.63;;;;;;;23.14;59.52;101214.69;5053771;28;20021;-83
2022/09/09 06:19:56;;;;;;;0.70;0.70;;;;;;;23.42;58.95;101227.97;5069706;28;20021;-86
2022/09/09 06:22:22;;;;;;;1.00;0.90;;;;;;;23.50;58.52;101209.59;5053400;28;20096;-86
2022/09/09 06:24:48;;;;;;;1.23;1.13;;;;;;;23.55;56.90;101201.22;5036468;28;20501;-89
2022/09/09 06:27:13;;;;;;;1.42;1.27;;;;;;;23.59;57.32;101219.28;5052924;28;20064;-88
2022/09/09 06:29:39;;;;;;;0.80;0.80;;;;;;;23.54;58.20;101205.66;5036796;28;20039;-90
2022/09/09 06:32:04;;;;;;;0.57;0.57;;;;;;;23.57;57.88;101215.94;5025920;28;20104;-82
2022/09/09 06:34:30;;;;;;;1.02;0.93;;;;;;;23.67;58.37;101210.66;5047138;28;20024;-82
2022/09/09 06:36:57;;;;;;;0.82;0.82;;;;;;;23.68;57.99;101189.38;5048762;28;20056;-91
2022/09/09 06:39:24;;;;;;;0.82;0.77;;;;;;;23.81;58.08;101198.78;5021589;28;20063;-88
2022/09/09 06:41:52;;;;;;;0.95;0.88;;;;;;;23.83;57.41;101197.66;5052209;28;20056;-86
2022/09/09 06:44:18;;;;;;;0.70;0.63;;;;;;;23.72;57.25;101184.63;5052998;28;21095;-90
2022/09/09 06:46:47;;;;;;;0.57;0.50;;;;;;;23.85;57.69;101187.75;5058235;28;20107;-91
2022/09/09 06:49:13;;;;;;;1.40;0.85;;;;;;;23.98;56.90;101203.25;5050425;28;20021;-95
2022/09/09 06:51:42;;;;;;;1.05;1.02;;;;;;;23.84;56.93;101214.31;5019315;28;20410;-87
2022/09/09 06:54:08;;;;;;;0.60;0.50;;;;;;;23.71;56.66;101223.44;5035550;28;20082;-91
2022/09/09 06:56:35;;;;;;;0.77;0.68;;;;;;;23.70;58.28;101211.22;5038615;28;20032;-87
2022/09/09 06:59:03;;;;;;;0.88;0.65;;;;;;;23.93;58.18;101221.38;5053852;28;20029;-88
2022/09/09 07:01:30;;;;;;;0.85;0.80;;;;;;;24.02;57.51;101212.56;5036120;28;20028;-93
2022/09/09 07:03:57;;;;;;;0.88;0.88;;;;;;;24.09;57.58;101231.28;5033729;28;20033;-89
2022/09/09 07:06:30;;;;;;;1.45;1.35;;;;;;;23.93;54.41;101226.66;5030715;28;20055;-83
2022/09/09 07:08:57;;;;;;;1.23;0.70;;;;;;;23.80;56.04;101236.75;5068269;28;20524;-90
2022/09/09 07:11:25;;;;;;;0.65;0.65;;;;;;;23.95;56.42;101245.84;5045232;28;20029;-83
2022/09/09 07:13:51;;;;;;;0.80;0.77;;;;;;;23.96;58.17;101252.78;5047148;28;20027;-90
2022/09/09 07:16:17;;;;;;;0.85;0.80;;;;;;;23.97;57.69;101249.16;5036145;28;20024;-91
2022/09/09 07:18:43;;;;;;;0.90;0.90;;;;;;;23.99;57.25;101228.69;5050382;28;20098;-87
2022/09/09 07:21:13;;;;;;;1.38;1.27;;;;;;;24.05;56.27;101233.41;5050968;28;20501;-88
2022/09/09 07:23:38;;;;;;;2.22;2.03;;;;;;;24.10;56.45;101223.22;5046749;28;20040;-84
2022/09/09 07:26:09;;;;;;;1.65;1.42;;;;;;;24.24;56.35;101238.56;5059116;28;20057;-83
2022/09/09 07:28:34;;;;;;;1.58;1.15;;;;;;;24.15;55.90;101236.81;5051662;28;20028;-84
2022/09/09 07:31:04;;;;;;;0.40;0.40;;;;;;;24.11;56.26;101243.41;5034999;28;20529;-86
2022/09/09 07:33:33;;;;;;;1.48;1.25;;;;;;;24.18;54.25;101239.16;5037439;28;20061;-92
2022/09/09 07:36:29;;;;;;;0.90;0.55;;;;;;;24.11;55.84;101250.50;5033116;28;20025;-84
2022/09/09 07:38:56;;;;;;;1.08;1.00;;;;;;;24.16;56.50;101242.94;5052682;28;20049;-93
2022/09/09 07:41:31;;;;;;;1.25;1.15;;;;;;;24.28;55.16;101247.03;5039137;28;20048;-83
2022/09/09 07:43:56;;;;;;;1.52;1.15;;;;;;;24.29;54.57;101244.25;5057449;28;20031;-87
2022/09/09 07:46:23;;;;;;;0.80;0.80;;;;;;;24.27;55.17;101245.38;5040989;28;20370;-86
2022/09/09 07:48:53;;;;;;;1.33;1.08;;;;;;;24.40;55.00;101245.88;5037350;28;20410;-86
2022/09/09 07:51:46;;;;;;;1.77;1.15;;;;;;;24.52;54.25;101246.50;5045138;28;20032;-94
2022/09/09 07:54:14;;;;;;;2.80;0.93;;;;;;;24.41;53.79;101220.28;5054109;28;20032;-84
2022/09/09 07:56:40;;;;;;;0.60;0.60;;;;;;;24.50;54.05;101224.66;5068024;28;20059;-82
2022/09/09 07:59:06;;;;;;;0.93;0.65;;;;;;;24.55;53.46;101239.09;5047305;28;21405;-84
2022/09/09 08:01:39;;;;;;;1.10;1.00;;;;;;;24.62;54.05;101231.38;5064596;28;20116;-82
2022/09/09 08:04:07;;;;;;;4.50;1.00;;;;;;;24.78;53.69;101239.47;5065095;28;20025;-83
2022/09/09 08:06:34;;;;;;;1.23;1.13;;;;;;;24.85;53.65;101243.16;5068221;28;20090;-84
2022/09/09 08:09:00;;;;;;;0.80;0.80;;;;;;;24.72;53.69;101232.13;5053458;28;20056;-83
2022/09/09 08:11:26;;;;;;;1.10;1.00;;;;;;;24.83;53.83;101239.84;5059990;28;20025;-83
2022/09/09 08:13:52;;;;;;;1.35;1.10;;;;;;;24.89;53.76;101241.88;5018146;28;20024;-92
2022/09/09 08:16:21;;;;;;;1.45;1.27;;;;;;;24.89;53.49;101249.00;5027720;28;20033;-82
2022/09/09 08:18:48;;;;;;;1.77;1.50;;;;;;;24.90;53.97;101242.72;5051338;28;20032;-82
2022/09/09 08:21:17;;;;;;;1.90;1.75;;;;;;;24.91;53.89;101254.13;5035196;28;20037;-82
2022/09/09 08:23:43;;;;;;;1.05;0.95;;;;;;;24.84;54.00;101253.91;5049436;28;20056;-83
2022/09/09 08:26:13;;;;;;;1.38;1.20;;;;;;;24.86;54.57;101258.03;5049932;28;20025;-85
2022/09/09 08:28:39;;;;;;;0.60;0.52;;;;;;;24.89;54.93;101260.41;5033434;28;20025;-90
2022/09/09 08:31:16;;;;;;;1.20;1.10;;;;;;;24.91;54.65;101264.72;5034457;28;20453;-89
2022/09/09 08:33:42;;;;;;;1.17;0.95;;;;;;;24.86;54.78;101265.97;5059245;28;20083;-85
2022/09/09 08:36:10;;;;;;;2.10;1.88;;;;;;;24.76;54.96;101245.88;5049426;28;20047;-83
2022/09/09 08:38:35;;;;;;;1.05;0.95;;;;;;;24.76;55.78;101248.53;5043601;28;20043;-94
2022/09/09 08:41:22;;;;;;;1.30;1.10;;;;;;;24.80;55.65;101248.09;5019108;28;20021;-85
2022/09/09 08:43:47;;;;;;;1.13;1.02;;;;;;;24.84;55.22;101244.13;5067756;28;20036;-85
2022/09/09 08:46:58;;;;;;;1.45;1.00;;;;;;;24.76;56.46;101243.22;5051003;28;20032;-90
2022/09/09 08:49:42;;;;;;;0.95;0.85;;;;;;;24.78;56.22;101241.28;5000369;28;20057;-85
2022/09/09 08:52:15;;;;;;;1.40;1.20;;;;;;;24.66;56.81;101219.50;4973018;28;20364;-91
2022/09/09 08:54:41;;;;;;;1.30;1.17;;;;;;;24.83;56.06;101225.78;5015020;28;20037;-85
2022/09/09 08:57:11;;;;;;;1.48;1.10;;;;;;;24.79;56.57;101225.25;5037921;28;20102;-85
2022/09/09 08:59:37;;;;;;;0.85;0.80;;;;;;;24.81;56.19;101206.56;5036755;28;20090;-89
2022/09/09 09:02:11;;;;;;;0.90;0.85;;;;;;;24.86;56.62;101214.88;5047019;28;20079;-94
2022/09/09 09:04:45;;;;;;;0.80;0.80;;;;;;;24.93;56.79;101221.22;5068797;28;20067;-92
2022/09/09 09:07:41;;;;;;;1.25;1.15;;;;;;;24.98;56.53;101212.84;5038427;28;20085;-86
2022/09/09 09:10:26;;;;;;;1.77;1.17;;;;;;;25.02;56.88;101214.22;5047571;28;20048;-95
2022/09/09 09:12:51;;;;;;;1.17;0.88;;;;;;;25.01;57.06;101217.81;5068849;28;20483;-86
2022/09/09 09:15:19;;;;;;;1.85;1.27;;;;;;;24.97;57.19;101201.38;5031982;28;20040;-90
2022/09/09 09:17:45;;;;;;;1.25;1.15;;;;;;;24.92;57.38;101200.22;5045891;28;20028;-93
2022/09/09 09:20:14;;;;;;;1.75;1.30;;;;;;;24.91;57.60;101206.50;5029440;28;20044;-91
2022/09/09 09:22:50;;;;;;;0.80;0.75;;;;;;;24.93;57.74;101204.50;5039314;28;20453;-86
2022/09/09 09:25:17;;;;;;;0.98;0.90;;;;;;;24.97;57.14;101196.09;5055674;28;20032;-89
2022/09/09 09:27:49;;;;;;;0.68;0.68;;;;;;;25.08;57.21;101208.31;5067197;28;20032;-83
2022/09/09 09:30:15;;;;;;;1.25;0.98;;;;;;;24.96;57.46;101204.19;5055157;28;20051;-84
2022/09/09 09:32:42;;;;;;;1.13;0.85;;;;;;;24.93;57.26;101199.22;5072280;28;20485;-83
2022/09/09 09:35:10;;;;;;;0.80;0.73;;;;;;;24.81;56.81;101182.75;5054156;28;20064;-82
2022/09/09 09:37:35;;;;;;;1.25;1.13;;;;;;;24.84;55.98;101195.69;5069077;28;20103;-83
2022/09/09 09:40:11;;;;;;;1.25;1.15;;;;;;;24.90;54.38;101189.78;5049108;28;20036;-86
2022/09/09 09:42:37;;;;;;;0.95;0.75;;;;;;;24.75;55.77;101196.59;5062011;28;20482;-82
2022/09/09 09:45:28;;;;;;;1.05;0.98;;;;;;;24.78;56.25;101202.44;5042069;28;20487;-82
2022/09/09 09:48:04;;;;;;;1.55;1.27;;;;;;;24.86;55.78;101199.00;5055185;28;20157;-82
2022/09/09 09:50:31;;;;;;;1.17;1.08;;;;;;;24.94;54.85;101216.75;5070649;28;20831;-91
2022/09/09 09:53:02;;;;;;;1.70;1.60;;;;;;;24.88;54.57;101219.06;5056262;23;20066;-84
2022/09/09 09:55:29;;;;;;;1.15;1.00;;;;;;;24.86;54.79;101213.06;5001448;28;20073;-82
2022/09/09 09:58:01;;;;;;;1.20;1.00;;;;;;;24.91;54.72;101211.78;4996906;28;20109;-80
2022/09/09 10:00:26;;;;;;;1.13;1.02;;;;;;;24.87;55.30;101212.06;4994803;28;20030;-86
2022/09/09 10:02:52;;;;;;;1.00;0.75;;;;;;;24.79;54.96;101214.69;5015049;28;20046;-88
2022/09/09 10:05:25;;;;;;;0.60;0.60;;;;;;;24.82;55.10;101214.34;4996629;28;20072;-86
2022/09/09 10:08:20;;;;;;;1.95;1.00;;;;;;;24.93;55.55;101223.03;5013507;28;20060;-82
2022/09/09 10:11:24;;;;;;;0.77;0.70;;;;;;;25.04;55.64;101228.13;5006212;28;20089;-92
2022/09/09 10:13:49;;;;;;;1.10;0.90;;;;;;;25.03;55.49;101211.41;5019827;28;20037;-79
2022/09/09 10:16:33;;;;;;;1.00;0.90;;;;;;;25.14;55.48;101212.97;5028509;28;20039;-81
2022/09/09 10:19:29;;;;;;;1.40;1.30;;;;;;;25.31;55.19;101227.16;5027448;28;20191;-89
2022/09/09 10:22:28;;;;;;;0.77;0.77;;;;;;;25.38;54.57;101231.66;5008758;28;20092;-87
2022/09/09 10:25:15;;;;;;;0.98;0.82;;;;;;;25.32;53.71;101216.38;5008168;28;20026;-81
2022/09/09 10:28:09;;;;;;;1.35;1.02;;;;;;;25.32;52.61;101197.84;5008782;28;20036;-79
2022/09/09 10:30:55;;;;;;;1.25;1.08;;;;;;;25.42;52.54;101230.34;5008459;28;20180;-83
2022/09/09 10:33:45;;;;;;;1.40;1.25;;;;;;;25.46;53.34;101223.75;5014121;28;20034;-88
2022/09/09 10:36:21;;;;;;;1.42;1.33;;;;;;;25.46;54.06;101223.75;5009916;28;20025;-79
2022/09/09 10:38:47;;;;;;;1.67;1.48;;;;;;;25.25;54.06;101182.75;5009572;28;20594;-85
2022/09/09 10:41:57;;;;;;;1.83;1.30;;;;;;;25.57;53.38;101221.84;5024854;28;20033;-82
2022/09/09 10:44:44;;;;;;;0.88;0.77;;;;;;;25.57;53.83;101235.91;5009510;28;20447;-84
2022/09/09 10:47:19;;;;;;;1.38;0.80;;;;;;;25.63;53.67;101229.13;5010981;28;20042;-83
2022/09/09 10:50:11;;;;;;;0.98;0.77;;;;;;;25.67;53.55;101231.31;5011784;28;20030;-82
2022/09/09 10:52:58;;;;;;;0.90;0.85;;;;;;;25.70;53.04;101220.44;5010635;28;20047;-83
2022/09/09 10:55:28;;;;;;;0.73;0.73;;;;;;;25.76;53.13;101229.53;4992823;28;20030;-86
2022/09/09 10:57:58;;;;;;;0.90;0.75;;;;;;;25.95;51.25;101224.00;4975721;28;20026;-95
2022/09/09 11:00:45;;;;;;;1.30;1.20;;;;;;;26.06;52.75;101217.59;5010858;28;20029;-90
2022/09/09 11:03:22;;;;;;;0.50;0.50;;;;;;;26.17;50.46;101197.91;5024809;28;20501;-81
2022/09/09 11:05:57;;;;;;;1.10;0.82;;;;;;;26.12;50.93;101171.84;5009603;28;20045;-86
2022/09/09 11:08:24;;;;;;;0.77;0.77;;;;;;;26.38;49.83;101203.59;4993556;28;20467;-83
2022/09/09 11:10:59;;;;;;;0.60;0.60;;;;;;;26.52;50.31;101212.72;4990323;28;20062;-83
2022/09/09 11:13:49;;;;;;;1.00;0.90;;;;;;;26.59;49.67;101211.91;4990782;28;20080;-90
2022/09/09 11:16:34;;;;;;;1.33;1.00;;;;;;;26.82;49.03;101211.22;5006148;28;20030;-82
2022/09/09 11:19:34;;;;;;;1.85;1.08;;;;;;;26.80;49.62;101214.03;4972718;28;20090;-87
2022/09/09 11:22:00;;;;;;;2.03;1.52;;;;;;;26.75;48.01;101194.31;4988701;28;20035;-88
2022/09/09 11:24:37;;;;;;;2.05;1.50;;;;;;;26.88;49.46;101207.91;5006323;28;20412;-85
2022/09/09 11:27:33;;;;;;;1.85;1.45;;;;;;;27.04;47.71;101184.03;5007114;28;20029;-85
2022/09/09 11:30:05;;;;;;;1.50;1.25;;;;;;;27.23;47.49;101192.59;4991960;28;20042;-87
2022/09/09 11:32:47;;;;;;;2.33;1.83;;;;;;;27.23;46.30;101187.28;4991379;28;20117;-85
2022/09/09 11:35:18;;;;;;;1.87;1.40;;;;;;;27.39;47.53;101179.28;5004532;28;20030;-84
2022/09/09 11:37:44;;;;;;;1.92;1.45;;;;;;;27.46;46.81;101177.59;4990009;28;20034;-82
2022/09/09 11:40:16;;;;;;;1.88;1.67;;;;;;;27.29;47.37;101134.31;4991162;28;20551;-92
2022/09/09 11:42:42;;;;;;;1.50;1.30;;;;;;;27.54;46.85;101164.28;4974423;28;20172;-85
2022/09/09 11:45:18;;;;;;;2.58;2.00;;;;;;;27.67;46.60;101159.28;4972136;28;20476;-91
2022/09/09 11:47:51;;;;;;;2.17;1.60;;;;;;;27.75;45.63;101160.25;4990466;28;20161;-88
2022/09/09 11:50:18;;;;;;;2.08;1.77;;;;;;;27.94;45.66;101162.47;4989074;28;20484;-88
2022/09/09 11:52:48;;;;;;;2.47;1.65;;;;;;;27.84;45.73;101154.72;4989045;28;20058;-86
2022/09/09 11:55:33;;;;;;;1.80;1.42;;;;;;;27.90;45.95;101169.13;4966544;28;20198;-84
2022/09/09 11:58:20;;;;;;;2.25;2.05;;;;;;;27.94;46.23;101170.44;4997645;28;20026;-88
2022/09/09 12:00:47;;;;;;;2.20;1.50;;;;;;;28.04;45.49;101160.41;5004833;28;20042;-91
2022/09/09 12:03:35;;;;;;;1.85;1.63;;;;;;;28.25;45.69;101162.41;4988098;28;20124;-87
2022/09/09 12:06:27;;;;;;;2.45;1.90;;;;;;;28.47;45.62;101148.28;5004588;28;20422;-86
2022/09/09 12:08:55;;;;;;;2.08;1.88;;;;;;;28.47;45.31;101142.97;4993449;28;20047;-86
2022/09/09 12:11:27;;;;;;;2.17;1.88;;;;;;;28.42;44.76;101147.19;4999334;28;20026;-85
2022/09/09 12:13:57;;;;;;;2.60;1.92;;;;;;;28.30;44.44;101138.78;4985646;28;20035;-83
2022/09/09 12:16:34;;;;;;;2.33;2.13;;;;;;;28.15;45.43;101129.91;4969539;28;20435;-80
2022/09/09 12:19:11;;;;;;;2.08;1.88;;;;;;;28.35;45.48;101149.72;4986678;28;20026;-84
2022/09/09 12:22:02;;;;;;;2.60;1.98;;;;;;;28.63;44.16;101147.34;4988082;28;20061;-82
2022/09/09 12:24:41;;;;;;;2.13;1.83;;;;;;;28.76;43.32;101136.06;5004450;28;20045;-83
2022/09/09 12:27:12;;;;;;;2.47;2.03;;;;;;;28.70;43.19;101118.13;5004265;28;20381;-81
2022/09/09 12:30:06;;;;;;;2.47;1.90;;;;;;;28.75;44.00;101124.59;4989504;28;20027;-81
2022/09/09 12:32:31;;;;;;;1.88;1.70;;;;;;;28.75;43.75;101116.59;4993481;28;20033;-82
2022/09/09 12:35:03;;;;;;;2.50;2.00;;;;;;;28.70;43.83;101105.66;5007849;28;20030;-81
2022/09/09 12:37:45;;;;;;;2.28;1.90;;;;;;;28.67;44.30;101108.69;4974785;28;20034;-81
2022/09/09 12:40:27;;;;;;;1.70;1.27;;;;;;;28.77;44.14;101108.44;5009204;28;20604;-82
2022/09/09 12:42:52;;;;;;;;;;;;;;;28.67;43.98;101102.53;4992693;28;20384;-83
2022/09/09 12:45:39;;;;;;;2.25;2.05;;;;;;;28.57;44.49;101092.16;4992745;28;19921;-81
2022/09/09 12:48:08;;;;;;;2.10;1.90;;;;;;;28.58;44.76;101088.47;4994101;28;20042;-80
2022/09/09 12:50:45;;;;;;;2.50;1.92;;;;;;;28.56;44.97;101086.00;5009509;28;20041;-80
2022/09/09 12:53:16;;;;;;;2.72;2.20;;;;;;;28.51;45.08;101074.22;5007213;28;20042;-83
2022/09/09 12:55:53;;;;;;;2.55;1.90;;;;;;;28.59;45.61;101084.81;4990544;28;20034;-84
2022/09/09 12:58:18;;;;;;;1.55;1.35;;;;;;;28.58;45.49;101077.84;4994193;28;20531;-92
2022/09/09 13:00:57;;;;;;;2.22;1.80;;;;;;;28.65;45.40;101073.44;4992680;28;20105;-80
2022/09/09 13:03:27;;;;;;;2.50;1.90;;;;;;;28.60;44.99;101057.19;5008127;28;20492;-80
2022/09/09 13:05:53;;;;;;;2.40;1.88;;;;;;;28.62;44.78;101070.34;4993224;28;20129;-80
2022/09/09 13:08:22;;;;;;;1.92;1.65;;;;;;;28.61;44.34;101064.16;4992754;28;20104;-81
2022/09/09 13:10:53;;;;;;;3.17;1.83;;;;;;;28.43;44.32;101037.09;5004173;28;20045;-80
2022/09/09 13:13:24;;;;;;;2.78;1.50;;;;;;;28.51;43.79;101056.44;5008391;28;20080;-82
2022/09/09 13:15:51;;;;;;;2.53;2.00;;;;;;;28.38;44.70;101060.72;5008908;28;20026;-81
2022/09/09 13:18:17;;;;;;;2.83;2.17;;;;;;;28.35;44.97;101061.09;5008684;28;20057;-82
2022/09/09 13:20:47;;;;;;;2.60;2.13;;;;;;;28.33;45.17;101068.44;5009479;28;20484;-89
2022/09/09 13:23:12;;;;;;;1.80;1.48;;;;;;;28.20;45.58;101045.88;4976815;28;20049;-87
2022/09/09 13:25:38;;;;;;;2.00;1.73;;;;;;;28.20;45.86;101053.88;4988005;28;20023;-83
2022/09/09 13:28:04;;;;;;;1.67;1.38;;;;;;;28.25;45.54;101050.69;4984801;28;20499;-90
2022/09/09 13:30:39;;;;;;;1.67;1.52;;;;;;;28.04;46.27;101035.41;4981018;28;20548;-83
2022/09/09 13:33:12;;;;;;;1.95;1.70;;;;;;;28.01;47.72;101035.75;4976896;28;20038;-89
2022/09/09 13:36:09;;;;;;;1.92;1.73;;;;;;;28.03;46.80;101041.75;4983560;28;20030;-90
2022/09/09 13:38:54;;;;;;;2.60;2.22;;;;;;;28.00;46.94;101036.75;5001759;28;20026;-89
2022/09/09 13:41:24;;;;;;;2.35;2.03;;;;;;;27.96;46.90;101035.47;4982931;28;20027;-80
2022/09/09 13:43:50;;;;;;;1.88;1.67;;;;;;;27.97;47.03;101031.81;4982910;28;20109;-80
2022/09/09 13:46:33;;;;;;;1.95;1.75;;;;;;;27.84;46.96;101021.78;4981505;28;20388;-82
2022/09/09 13:49:17;;;;;;;1.90;1.58;;;;;;;27.98;47.12;101030.78;5007386;28;20040;-81
2022/09/09 13:51:46;;;;;;;2.00;1.60;;;;;;;28.05;46.99;101037.06;5008080;28;20058;-81
2022/09/09 13:54:13;;;;;;;2.30;2.00;;;;;;;28.08;46.57;101031.38;5006964;28;20069;-82
2022/09/09 13:56:39;;;;;;;2.15;1.73;;;;;;;28.10;46.13;101026.69;4976047;28;20081;-82
2022/09/09 13:59:05;;;;;;;3.13;2.03;;;;;;;28.01;46.51;101017.13;4975378;28;20041;-82
2022/09/09 14:01:31;;;;;;;2.33;1.75;;;;;;;27.99;47.36;101024.47;4990991;28;20117;-78
2022/09/09 14:03:56;;;;;;;2.40;1.90;;;;;;;28.01;46.80;101014.47;4991585;28;20031;-84
2022/09/09 14:06:22;;;;;;;1.90;1.60;;;;;;;27.88;47.17;100983.19;4990766;28;20030;-83
